KBDR Airport (Igor I Sikorsky Memorial) Information

FAA: BDR - ICAO: KBDR

KBDR Airport Location

State Connecticut
County Fairfield
City Bridgeport
KBDR Airport is 3 miles southeast of Bridgeport, CT.
Latitude 41-09-48.5000N
Longitude 073-07-34.2000W
Elevation 8ft

KBDR Airport METARs

METAR KBDR 070852Z AUTO 27008KT 10SM CLR 03/M06 A2998 RMK AO2 SLP150 T00331061 $
Altimeter 29.98"
Temperature 3.3°C (37.9°F)
Wind 270° at 8KT
Clouds Skies are clear.
Visibility 10.0mi
Time observed: 2021-12-07T08:52:00Z

KBDR Airport Details

Status Operational
Activation April 1940
Ownership Public
Usage Public
Chart NEW YORK
ATC on-site Yes
Beacon schedule sunset-sunrise
Beacon color clear green

KBDR Airport Contacts

Owner CITY OF BRIDGEPORT
Owner address 45 LYON TERRACE, BRIDGEPORT, CT 06615
Owner phone 203-576-7201
Manager WILLIAM E. HART, CHIEF PILOT
Manager address OLD WINDSOR ROAD, BLOOMFIELD, CT 06002
Manager phone (860) 243-7813

KBDR Airport (Igor I Sikorsky Memorial) Radio Frequencies

KBDR (Airport) Radio Frequencies

UNICOM 123
Common traffic advisory frequency (CTAF) 120.9